createdAt,value
2017-02-15T00:00:26.013Z,-1.76
2017-02-15T00:01:39.181Z,-1.74
2017-02-15T00:02:52.261Z,-1.79
2017-02-15T00:04:05.381Z,-1.78
2017-02-15T00:05:17.752Z,-1.71
2017-02-15T00:06:30.898Z,-1.86
2017-02-15T00:07:44.012Z,-1.81
2017-02-15T00:08:57.091Z,-1.79
2017-02-15T00:10:09.805Z,-1.81
2017-02-15T00:11:22.952Z,-1.84
2017-02-15T00:12:36.064Z,-1.79
2017-02-15T00:13:49.185Z,-1.87
2017-02-15T00:15:02.299Z,-1.86
2017-02-15T00:16:15.026Z,-1.97
2017-02-15T00:17:28.105Z,-1.92
2017-02-15T00:18:41.230Z,-1.9
2017-02-15T00:19:54.379Z,-1.9
2017-02-15T00:21:07.523Z,-1.93
2017-02-15T00:22:20.251Z,-1.99
2017-02-15T00:23:33.365Z,-2.02
2017-02-15T00:24:46.433Z,-1.99
2017-02-15T00:25:59.532Z,-2.04
2017-02-15T00:27:12.646Z,-2.1
2017-02-15T00:28:25.343Z,-2.02
2017-02-15T00:29:38.463Z,-2.08
2017-02-15T00:30:51.616Z,-2.05
2017-02-15T00:32:04.705Z,-2.11
2017-02-15T00:33:17.804Z,-2.07
2017-02-15T00:34:30.897Z,-2.1
2017-02-15T00:35:43.993Z,-2.08
2017-02-15T00:36:56.745Z,-2.11
2017-02-15T00:38:09.460Z,-2.11
2017-02-15T00:39:22.598Z,-2.14
2017-02-15T00:40:35.532Z,-2.1
2017-02-15T00:41:48.623Z,-2.22
2017-02-15T00:43:01.696Z,-2.14
2017-02-15T00:44:14.433Z,-2.11
2017-02-15T00:45:27.535Z,-2.08
2017-02-15T00:46:40.630Z,-2.15
2017-02-15T00:47:53.733Z,-2.13
2017-02-15T00:49:06.905Z,-2.15
2017-02-15T00:50:20.019Z,-2.22
2017-02-15T00:51:32.746Z,-2.29
2017-02-15T00:52:45.836Z,-2.26
2017-02-15T00:53:58.923Z,-2.28
2017-02-15T00:55:12.031Z,-2.34
2017-02-15T00:56:25.069Z,-2.26
2017-02-15T00:57:38.167Z,-2.2
2017-02-15T00:58:51.265Z,-2.26
2017-02-15T01:00:04.368Z,-2.23
2017-02-15T01:01:17.432Z,-2.29
2017-02-15T01:02:30.120Z,-2.29
2017-02-15T01:03:43.200Z,-2.34
2017-02-15T01:04:56.275Z,-2.37
2017-02-15T01:06:09.396Z,-2.36
2017-02-15T01:07:22.466Z,-2.42
2017-02-15T01:08:35.207Z,-2.39
2017-02-15T01:09:48.253Z,-2.39
2017-02-15T01:11:01.281Z,-2.39
2017-02-15T01:12:14.445Z,-2.36
2017-02-15T01:13:27.497Z,-2.37
2017-02-15T01:14:40.590Z,-2.33
2017-02-15T01:15:53.707Z,-2.4
2017-02-15T01:17:06.790Z,-2.37
2017-02-15T01:18:19.873Z,-2.44
2017-02-15T01:19:32.620Z,-2.42
2017-02-15T01:20:45.758Z,-2.48
2017-02-15T01:21:58.852Z,-2.45
2017-02-15T01:23:11.948Z,-2.51
2017-02-15T01:24:25.037Z,-2.54
2017-02-15T01:25:38.198Z,-2.52
2017-02-15T01:26:51.357Z,-2.48
2017-02-15T01:28:04.487Z,-2.52
2017-02-15T01:29:17.211Z,-2.57
2017-02-15T01:30:29.938Z,-2.58
2017-02-15T01:31:42.658Z,-2.62
2017-02-15T01:32:55.803Z,-2.68
2017-02-15T01:34:08.923Z,-2.57
2017-02-15T01:35:21.990Z,-2.57
2017-02-15T01:36:34.689Z,-2.58
2017-02-15T01:37:47.781Z,-2.61
2017-02-15T01:39:00.934Z,-2.69
2017-02-15T01:40:13.678Z,-2.55
2017-02-15T01:41:26.795Z,-2.7
2017-02-15T01:42:39.921Z,-2.7
2017-02-15T01:43:52.991Z,-2.7
2017-02-15T01:45:06.339Z,-2.62
2017-02-15T01:46:19.440Z,-2.62
2017-02-15T01:47:32.558Z,-2.68
2017-02-15T01:48:45.669Z,-2.65
2017-02-15T01:49:58.766Z,-2.65
2017-02-15T01:51:11.529Z,-2.66
2017-02-15T01:52:24.680Z,-2.66
2017-02-15T01:53:37.807Z,-2.7
2017-02-15T01:54:50.924Z,-2.73
2017-02-15T01:56:04.045Z,-2.78
2017-02-15T01:57:16.765Z,-2.72
2017-02-15T01:58:29.837Z,-2.75
2017-02-15T01:59:42.930Z,-2.76
2017-02-15T02:00:56.060Z,-2.8
2017-02-15T02:02:09.203Z,-2.78
2017-02-15T02:03:22.306Z,-2.8
2017-02-15T02:04:35.373Z,-2.8
2017-02-15T02:05:48.493Z,-2.73
2017-02-15T02:07:01.546Z,-2.75
2017-02-15T02:08:14.629Z,-2.8
2017-02-15T02:09:27.741Z,-2.76
2017-02-15T02:10:40.825Z,-2.84
2017-02-15T02:11:54.191Z,-2.9
2017-02-15T02:13:07.286Z,-2.84
2017-02-15T02:14:20.367Z,-2.78
2017-02-15T02:15:33.085Z,-2.91
2017-02-15T02:16:46.199Z,-2.91
2017-02-15T02:17:59.301Z,-2.9
2017-02-15T02:19:12.032Z,-2.81
2017-02-15T02:20:25.136Z,-2.96
2017-02-15T02:21:37.457Z,-2.86
2017-02-15T02:22:50.578Z,-2.87
2017-02-15T02:24:03.624Z,-2.94
2017-02-15T02:25:16.751Z,-2.96
2017-02-15T02:26:29.840Z,-2.91
2017-02-15T02:27:42.515Z,-2.89
2017-02-15T02:28:55.658Z,-2.89
2017-02-15T02:30:08.788Z,-2.9
2017-02-15T02:31:21.499Z,-2.91
2017-02-15T02:32:34.251Z,-2.99
2017-02-15T02:33:47.316Z,-2.96
2017-02-15T02:35:00.445Z,-2.96
2017-02-15T02:36:13.180Z,-2.91
2017-02-15T02:37:25.877Z,-2.96
2017-02-15T02:38:38.199Z,-2.89
2017-02-15T02:39:51.302Z,-2.84
2017-02-15T02:41:04.016Z,-2.91
2017-02-15T02:42:16.743Z,-2.87
2017-02-15T02:43:29.832Z,-3.01
2017-02-15T02:44:42.979Z,-2.94
2017-02-15T02:45:56.131Z,-2.9
2017-02-15T02:47:09.227Z,-2.91
2017-02-15T02:48:22.293Z,-2.93
2017-02-15T02:49:35.437Z,-2.94
2017-02-15T02:50:48.532Z,-2.9
2017-02-15T02:52:01.646Z,-2.89
2017-02-15T02:53:14.351Z,-2.98
2017-02-15T02:54:27.446Z,-2.91
2017-02-15T02:55:40.534Z,-2.93
2017-02-15T02:56:53.619Z,-2.9
2017-02-15T02:58:06.690Z,-2.93
2017-02-15T02:59:19.809Z,-2.93
2017-02-15T03:00:32.875Z,-2.96
2017-02-15T03:01:45.952Z,-2.93
2017-02-15T03:02:59.046Z,-2.98
2017-02-15T03:04:12.143Z,-2.96
2017-02-15T03:05:25.306Z,-3.01
2017-02-15T03:06:38.002Z,-2.99
2017-02-15T03:07:51.109Z,-3.05
2017-02-15T03:09:04.178Z,-3.02
2017-02-15T03:10:17.348Z,-2.99
2017-02-15T03:11:30.463Z,-3.01
2017-02-15T03:12:43.584Z,-2.96
2017-02-15T03:13:56.686Z,-3.07
2017-02-15T03:15:09.833Z,-2.99
2017-02-15T03:16:22.928Z,-3.01
2017-02-15T03:17:36.097Z,-3.07
2017-02-15T03:18:49.163Z,-3.04
2017-02-15T03:20:02.265Z,-3.04
2017-02-15T03:21:14.930Z,-3.07
2017-02-15T03:22:27.882Z,-3.04
2017-02-15T03:23:40.196Z,-3.01
2017-02-15T03:24:53.298Z,-2.98
2017-02-15T03:26:06.420Z,-3.08
2017-02-15T03:27:19.514Z,-3.05
2017-02-15T03:28:32.579Z,-3.07
2017-02-15T03:29:45.625Z,-3.04
2017-02-15T03:30:58.691Z,-3.09
2017-02-15T03:32:11.749Z,-3.07
2017-02-15T03:33:24.517Z,-3.07
2017-02-15T03:34:37.284Z,-3.04
2017-02-15T03:35:50.334Z,-3.07
2017-02-15T03:37:03.402Z,-3.11
2017-02-15T03:38:16.528Z,-3.09
2017-02-15T03:39:29.626Z,-3.11
2017-02-15T03:40:42.696Z,-3.04
2017-02-15T03:41:55.811Z,-3.11
2017-02-15T03:43:08.936Z,-3.09
2017-02-15T03:44:21.658Z,-3.07
2017-02-15T03:45:34.410Z,-3.05
2017-02-15T03:46:47.522Z,-3.05
2017-02-15T03:48:00.645Z,-3.09
2017-02-15T03:49:13.367Z,-3.09
2017-02-15T03:50:26.486Z,-3.09
2017-02-15T03:51:39.177Z,-3.14
2017-02-15T03:52:52.278Z,-3.11
2017-02-15T03:54:05.374Z,-3.09
2017-02-15T03:55:17.316Z,-3.07
2017-02-15T03:56:30.468Z,-3.09
2017-02-15T03:57:43.575Z,-3.05
2017-02-15T03:58:56.607Z,-3.15
2017-02-15T04:00:09.665Z,-3.12
2017-02-15T04:01:22.395Z,-3.14
2017-02-15T04:02:35.538Z,-3.11
2017-02-15T04:03:48.659Z,-3.09
2017-02-15T04:05:01.424Z,-3.11
2017-02-15T04:06:14.133Z,-3.09
2017-02-15T04:07:27.274Z,-3.08
2017-02-15T04:08:39.971Z,-3.07
2017-02-15T04:09:53.083Z,-3.11
2017-02-15T04:11:06.161Z,-3.11
2017-02-15T04:12:19.274Z,-3.05
2017-02-15T04:13:32.403Z,-3.07
2017-02-15T04:14:45.142Z,-3.04
2017-02-15T04:15:58.493Z,-3.04
2017-02-15T04:17:11.573Z,-3.04
2017-02-15T04:18:24.662Z,-3.01
2017-02-15T04:19:37.318Z,-2.99
2017-02-15T04:20:50.421Z,-3.09
2017-02-15T04:22:03.507Z,-3.02
2017-02-15T04:23:16.604Z,-3.04
2017-02-15T04:24:29.701Z,-3.07
2017-02-15T04:25:42.810Z,-2.98
2017-02-15T04:26:55.963Z,-2.89
2017-02-15T04:28:08.660Z,-2.89
2017-02-15T04:29:21.402Z,-2.94
2017-02-15T04:30:34.152Z,-2.91
2017-02-15T04:31:46.474Z,-2.89
2017-02-15T04:32:59.537Z,-2.89
2017-02-15T04:34:12.212Z,-2.76
2017-02-15T04:35:25.313Z,-2.83
2017-02-15T04:36:38.392Z,-2.81
2017-02-15T04:37:51.520Z,-2.78
2017-02-15T04:39:04.642Z,-2.78
2017-02-15T04:40:17.366Z,-2.81
2017-02-15T04:41:30.491Z,-2.76
2017-02-15T04:42:43.579Z,-2.81
2017-02-15T04:43:56.703Z,-2.81
2017-02-15T04:45:09.788Z,-2.78
2017-02-15T04:46:22.468Z,-2.81
2017-02-15T04:47:35.569Z,-2.83
2017-02-15T04:48:48.690Z,-2.75
2017-02-15T04:50:01.807Z,-2.86
2017-02-15T04:51:14.519Z,-2.75
2017-02-15T04:52:27.603Z,-2.72
2017-02-15T04:53:40.718Z,-2.76
2017-02-15T04:54:53.811Z,-2.76
2017-02-15T04:56:06.933Z,-2.8
2017-02-15T04:57:20.061Z,-2.75
2017-02-15T04:58:32.777Z,-2.8
2017-02-15T04:59:46.122Z,-2.83
2017-02-15T05:00:59.269Z,-2.76
2017-02-15T05:02:12.341Z,-2.81
2017-02-15T05:03:25.450Z,-2.8
2017-02-15T05:04:38.564Z,-2.78
2017-02-15T05:05:51.632Z,-2.83
2017-02-15T05:07:04.754Z,-2.8
2017-02-15T05:08:17.475Z,-2.8
2017-02-15T05:09:30.600Z,-2.84
2017-02-15T05:10:43.742Z,-2.81
2017-02-15T05:11:56.839Z,-2.86
2017-02-15T05:13:09.878Z,-2.8
2017-02-15T05:14:22.582Z,-2.8
2017-02-15T05:15:35.296Z,-2.86
2017-02-15T05:16:48.389Z,-2.81
2017-02-15T05:18:01.491Z,-2.84
2017-02-15T05:19:14.215Z,-2.83
2017-02-15T05:20:26.924Z,-2.8
2017-02-15T05:21:39.649Z,-2.9
2017-02-15T05:22:52.746Z,-2.76
2017-02-15T05:24:05.892Z,-2.86
2017-02-15T05:25:18.597Z,-2.83
2017-02-15T05:26:31.749Z,-2.81
2017-02-15T05:27:44.853Z,-2.9
2017-02-15T05:28:57.930Z,-2.78
2017-02-15T05:30:10.670Z,-2.84
2017-02-15T05:31:23.719Z,-2.84
2017-02-15T05:32:36.835Z,-2.84
2017-02-15T05:33:49.565Z,-2.86
2017-02-15T05:35:02.670Z,-2.83
2017-02-15T05:36:15.756Z,-2.9
2017-02-15T05:37:29.130Z,-2.86
2017-02-15T05:38:42.221Z,-2.84
2017-02-15T05:39:54.968Z,-2.84
2017-02-15T05:41:08.083Z,-2.87
2017-02-15T05:42:20.779Z,-2.89
2017-02-15T05:43:33.848Z,-2.87
2017-02-15T05:44:46.901Z,-2.94
2017-02-15T05:46:00.026Z,-2.93
2017-02-15T05:47:12.337Z,-2.9
2017-02-15T05:48:25.432Z,-2.86
2017-02-15T05:49:38.510Z,-2.87
2017-02-15T05:50:51.607Z,-2.9
2017-02-15T05:52:04.671Z,-2.96
2017-02-15T05:53:17.391Z,-2.94
2017-02-15T05:54:30.103Z,-2.91
2017-02-15T05:55:43.150Z,-3.01
2017-02-15T05:56:55.921Z,-2.94
2017-02-15T05:58:08.642Z,-2.98
2017-02-15T05:59:21.621Z,-3.05
2017-02-15T06:00:34.720Z,-3.07
2017-02-15T06:01:47.428Z,-3.05
2017-02-15T06:03:00.539Z,-3.05
2017-02-15T06:04:13.261Z,-3.08
2017-02-15T06:05:25.977Z,-2.96
2017-02-15T06:06:39.096Z,-3.08
2017-02-15T06:07:52.220Z,-3.05
2017-02-15T06:09:05.305Z,-3.02
2017-02-15T06:10:18.439Z,-3.07
2017-02-15T06:11:31.496Z,-3.04
2017-02-15T06:12:44.193Z,-3.08
2017-02-15T06:13:56.904Z,-3.09
2017-02-15T06:15:09.998Z,-3.15
2017-02-15T06:16:23.137Z,-3.05
2017-02-15T06:17:35.785Z,-3.07
2017-02-15T06:18:48.871Z,-3.11
2017-02-15T06:20:01.582Z,-3.11
2017-02-15T06:21:14.380Z,-3.09
2017-02-15T06:22:27.443Z,-3.09
2017-02-15T06:23:40.545Z,-3.08
2017-02-15T06:24:53.677Z,-3.14
2017-02-15T06:26:06.734Z,-3.11
2017-02-15T06:27:20.087Z,-3.09
2017-02-15T06:28:33.178Z,-3.08
2017-02-15T06:29:45.866Z,-3.12
2017-02-15T06:30:58.920Z,-3.09
2017-02-15T06:32:12.047Z,-3.09
2017-02-15T06:33:25.140Z,-3.09
2017-02-15T06:34:38.299Z,-3.11
2017-02-15T06:35:51.022Z,-3.14
2017-02-15T06:37:04.092Z,-3.09
2017-02-15T06:38:17.139Z,-3.07
2017-02-15T06:39:30.215Z,-3.08
2017-02-15T06:40:43.362Z,-3.11
2017-02-15T06:41:56.477Z,-3.14
2017-02-15T06:43:09.575Z,-3.09
2017-02-15T06:44:22.661Z,-3.09
2017-02-15T06:45:35.737Z,-3.05
2017-02-15T06:46:48.862Z,-2.98
2017-02-15T06:48:01.939Z,-3.02
2017-02-15T06:49:14.644Z,-3.04
2017-02-15T06:50:27.728Z,-3.08
2017-02-15T06:51:40.828Z,-3.02
2017-02-15T06:52:53.915Z,-3.01
2017-02-15T06:54:07.042Z,-2.98
2017-02-15T06:55:19.737Z,-2.98
2017-02-15T06:56:32.827Z,-2.98
2017-02-15T06:57:45.905Z,-3.08
2017-02-15T06:58:59.019Z,-2.93
2017-02-15T07:00:12.115Z,-2.93
2017-02-15T07:01:25.247Z,-2.93
2017-02-15T07:02:38.387Z,-2.89
2017-02-15T07:03:51.482Z,-2.87
2017-02-15T07:05:04.573Z,-2.76
2017-02-15T07:06:16.886Z,-2.78
2017-02-15T07:07:29.956Z,-2.75
2017-02-15T07:08:42.635Z,-2.8
2017-02-15T07:09:55.764Z,-2.78
2017-02-15T07:11:08.496Z,-2.76
2017-02-15T07:12:21.572Z,-2.75
2017-02-15T07:13:34.695Z,-2.68
2017-02-15T07:14:47.390Z,-2.75
2017-02-15T07:16:00.492Z,-2.63
2017-02-15T07:17:13.607Z,-2.63
2017-02-15T07:18:26.728Z,-2.66
2017-02-15T07:19:39.792Z,-2.65
2017-02-15T07:20:53.144Z,-2.63
2017-02-15T07:22:05.872Z,-2.73
2017-02-15T07:23:18.611Z,-2.69
2017-02-15T07:24:30.919Z,-2.62
2017-02-15T07:25:44.028Z,-2.61
2017-02-15T07:26:57.102Z,-2.58
2017-02-15T07:28:10.227Z,-2.62
2017-02-15T07:29:23.343Z,-2.48
2017-02-15T07:30:36.469Z,-2.55
2017-02-15T07:31:49.599Z,-2.48
2017-02-15T07:33:02.328Z,-2.44
2017-02-15T07:34:15.454Z,-2.48
2017-02-15T07:35:28.562Z,-2.44
2017-02-15T07:36:41.659Z,-2.37
2017-02-15T07:37:54.337Z,-2.5
2017-02-15T07:39:07.381Z,-2.33
2017-02-15T07:40:20.111Z,-2.33
2017-02-15T07:41:33.481Z,-2.34
2017-02-15T07:42:46.620Z,-2.26
2017-02-15T07:43:59.691Z,-2.32
2017-02-15T07:45:12.762Z,-2.23
2017-02-15T07:46:25.850Z,-2.25
2017-02-15T07:47:38.955Z,-2.18
2017-02-15T07:48:52.041Z,-2.23
2017-02-15T07:50:05.102Z,-2.11
2017-02-15T07:51:18.195Z,-2.02
2017-02-15T07:52:31.344Z,-2.02
2017-02-15T07:53:44.431Z,-1.99
2017-02-15T07:54:57.609Z,-1.99
2017-02-15T07:56:10.716Z,-1.97
2017-02-15T07:57:23.795Z,-1.92
2017-02-15T07:58:36.870Z,-1.87
2017-02-15T07:59:50.005Z,-1.79
2017-02-15T08:01:03.093Z,-1.81
2017-02-15T08:02:15.428Z,-1.81
2017-02-15T08:03:28.790Z,-1.75
2017-02-15T08:04:41.846Z,-1.81
2017-02-15T08:05:54.942Z,-1.69
2017-02-15T08:07:08.048Z,-1.61
2017-02-15T08:08:20.764Z,-1.56
2017-02-15T08:09:33.879Z,-1.4
2017-02-15T08:10:46.931Z,-1.45
2017-02-15T08:12:00.026Z,-1.5
2017-02-15T08:13:13.147Z,-1.39
2017-02-15T08:14:26.274Z,-1.35
2017-02-15T08:15:39.358Z,-1.33
2017-02-15T08:16:52.078Z,-1.22
2017-02-15T08:18:05.131Z,-1.21
2017-02-15T08:19:18.195Z,-1.15
2017-02-15T08:20:31.267Z,-1.19
2017-02-15T08:21:44.410Z,-1.12
2017-02-15T08:22:57.140Z,-1.07
2017-02-15T08:24:10.285Z,-1.01
2017-02-15T08:25:23.405Z,-0.91
2017-02-15T08:26:36.519Z,-0.89
2017-02-15T08:27:49.248Z,-0.81
2017-02-15T08:29:02.338Z,-0.8
2017-02-15T08:30:15.428Z,-0.8
2017-02-15T08:31:28.560Z,-0.74
2017-02-15T08:32:41.342Z,-0.69
2017-02-15T08:33:54.513Z,-0.6
2017-02-15T08:35:07.596Z,-0.51
2017-02-15T08:36:19.943Z,-0.51
2017-02-15T08:37:33.039Z,-0.49
2017-02-15T08:38:46.157Z,-0.45
2017-02-15T08:39:59.255Z,-0.41
2017-02-15T08:41:12.357Z,-0.28
2017-02-15T08:42:25.524Z,-0.35
2017-02-15T08:43:38.262Z,-0.31
2017-02-15T08:44:51.335Z,-0.24
2017-02-15T08:46:04.072Z,-0.17
2017-02-15T08:47:16.412Z,-0.05
2017-02-15T08:48:29.527Z,-0.1
2017-02-15T08:49:42.585Z,-0.02
2017-02-15T08:50:55.695Z,0.05
2017-02-15T08:52:08.817Z,0.09
2017-02-15T08:53:21.973Z,0.18
2017-02-15T08:54:34.651Z,0.12
2017-02-15T08:55:47.780Z,0.27
2017-02-15T08:57:00.098Z,0.26
2017-02-15T08:58:13.195Z,0.34
2017-02-15T08:59:25.932Z,0.33
2017-02-15T09:00:39.033Z,0.42
2017-02-15T09:01:52.142Z,0.44
2017-02-15T09:03:05.253Z,0.56
2017-02-15T09:04:17.966Z,0.61
2017-02-15T09:05:31.063Z,0.66
2017-02-15T09:06:44.183Z,0.7
2017-02-15T09:07:57.261Z,0.78
2017-02-15T09:09:09.968Z,0.86
2017-02-15T09:10:23.074Z,0.86
2017-02-15T09:11:36.211Z,0.94
2017-02-15T09:12:49.344Z,0.99
2017-02-15T09:14:02.440Z,1.1
2017-02-15T09:15:15.553Z,1.07
2017-02-15T09:16:28.312Z,1.18
2017-02-15T09:17:41.412Z,1.21
2017-02-15T09:18:54.518Z,1.21
2017-02-15T09:20:07.619Z,1.28
2017-02-15T09:21:20.721Z,1.36
2017-02-15T09:22:33.813Z,1.36
2017-02-15T09:23:46.950Z,1.36
2017-02-15T09:25:00.046Z,1.48
2017-02-15T09:26:12.767Z,1.58
2017-02-15T09:27:25.470Z,1.75
2017-02-15T09:28:38.138Z,1.75
2017-02-15T09:29:51.207Z,1.7
2017-02-15T09:31:04.357Z,1.86
2017-02-15T09:32:17.047Z,1.85
2017-02-15T09:33:30.151Z,1.98
2017-02-15T09:34:43.287Z,2
2017-02-15T09:35:56.415Z,2.08
2017-02-15T09:37:09.564Z,2.1
2017-02-15T09:38:22.707Z,2.19
2017-02-15T09:39:35.804Z,2.21
2017-02-15T09:40:48.942Z,2.41
2017-02-15T09:42:02.114Z,2.37
2017-02-15T09:43:14.826Z,2.54
2017-02-15T09:44:27.912Z,2.55
2017-02-15T09:45:41.026Z,2.65
2017-02-15T09:46:53.797Z,2.75
2017-02-15T09:48:06.877Z,2.87
2017-02-15T09:49:19.618Z,2.79
2017-02-15T09:50:32.352Z,2.94
2017-02-15T09:51:45.458Z,3
2017-02-15T09:52:58.536Z,3
2017-02-15T09:54:11.678Z,3.03
2017-02-15T09:55:24.417Z,3.11
2017-02-15T09:56:37.525Z,3.18
2017-02-15T09:57:50.515Z,3.34
2017-02-15T09:59:03.609Z,3.41
2017-02-15T10:00:16.379Z,3.49
2017-02-15T10:01:29.089Z,3.56
2017-02-15T10:02:42.221Z,3.52
2017-02-15T10:03:55.313Z,3.67
2017-02-15T10:05:08.002Z,3.7
2017-02-15T10:06:21.128Z,3.86
2017-02-15T10:07:34.275Z,3.86
2017-02-15T10:08:47.376Z,3.91
2017-02-15T10:10:00.499Z,3.96
2017-02-15T10:11:13.188Z,4.06
2017-02-15T10:12:26.277Z,4.1
2017-02-15T10:13:39.361Z,4.14
2017-02-15T10:14:52.476Z,4.22
2017-02-15T10:16:05.571Z,4.24
2017-02-15T10:17:18.762Z,4.34
2017-02-15T10:18:31.445Z,4.3
2017-02-15T10:19:44.569Z,4.45
2017-02-15T10:20:57.661Z,4.45
2017-02-15T10:22:10.776Z,4.46
2017-02-15T10:23:23.539Z,4.58
2017-02-15T10:24:36.668Z,4.64
2017-02-15T10:25:49.757Z,4.74
2017-02-15T10:27:02.860Z,4.7
2017-02-15T10:28:15.556Z,4.79
2017-02-15T10:29:28.676Z,4.71
2017-02-15T10:30:41.771Z,4.86
2017-02-15T10:31:54.948Z,4.94
2017-02-15T10:33:07.671Z,4.9
2017-02-15T10:34:20.388Z,4.98
2017-02-15T10:35:33.573Z,4.98
2017-02-15T10:36:46.628Z,5.01
2017-02-15T10:37:59.723Z,5.08
2017-02-15T10:39:12.449Z,5.19
2017-02-15T10:40:25.547Z,5.23
2017-02-15T10:41:38.661Z,5.26
2017-02-15T10:42:51.799Z,5.36
2017-02-15T10:44:04.913Z,5.33
2017-02-15T10:45:17.623Z,5.37
2017-02-15T10:46:30.743Z,5.47
2017-02-15T10:47:43.100Z,5.58
2017-02-15T10:48:56.193Z,5.51
2017-02-15T10:50:08.888Z,5.54
2017-02-15T10:51:22.052Z,5.61
2017-02-15T10:52:34.397Z,5.64
2017-02-15T10:53:47.538Z,5.73
2017-02-15T10:55:00.674Z,5.8
2017-02-15T10:56:13.048Z,5.83
2017-02-15T10:57:25.740Z,5.84
2017-02-15T10:58:38.853Z,5.95
2017-02-15T10:59:51.977Z,5.97
2017-02-15T11:01:05.095Z,6.1
2017-02-15T11:02:18.248Z,6.07
2017-02-15T11:03:30.230Z,6.06
2017-02-15T11:04:42.959Z,6.05
2017-02-15T11:05:56.105Z,6.13
2017-02-15T11:07:09.257Z,6.12
2017-02-15T11:08:22.325Z,6.16
2017-02-15T11:09:35.449Z,6.15
2017-02-15T11:10:48.612Z,6.25
2017-02-15T11:12:01.734Z,6.25
2017-02-15T11:13:14.447Z,6.29
2017-02-15T11:14:27.580Z,6.35
2017-02-15T11:15:40.297Z,6.34
2017-02-15T11:16:53.418Z,6.36
2017-02-15T11:18:06.544Z,6.43
2017-02-15T11:19:19.666Z,6.46
2017-02-15T11:20:32.831Z,6.47
2017-02-15T11:21:45.976Z,6.49
2017-02-15T11:22:59.105Z,6.56
2017-02-15T11:24:11.880Z,6.56
2017-02-15T11:25:25.016Z,6.62
2017-02-15T11:26:38.140Z,6.65
2017-02-15T11:27:50.831Z,6.74
2017-02-15T11:29:03.927Z,6.7
2017-02-15T11:30:17.004Z,6.78
2017-02-15T11:31:29.799Z,6.77
2017-02-15T11:32:42.889Z,6.74
2017-02-15T11:33:55.983Z,6.87
2017-02-15T11:35:08.362Z,6.9
2017-02-15T11:36:21.518Z,6.92
2017-02-15T11:37:34.647Z,6.97
2017-02-15T11:38:47.720Z,7.01
2017-02-15T11:40:00.089Z,7.1
2017-02-15T11:41:12.761Z,7.1
2017-02-15T11:42:25.863Z,7.08
2017-02-15T11:43:39.009Z,7.11
2017-02-15T11:44:52.123Z,7.21
2017-02-15T11:46:04.874Z,7.11
2017-02-15T11:47:17.621Z,7.21
2017-02-15T11:48:30.336Z,7.28
2017-02-15T11:49:43.440Z,7.28
2017-02-15T11:50:56.553Z,7.29
2017-02-15T11:52:09.326Z,7.33
2017-02-15T11:53:22.051Z,7.44
2017-02-15T11:54:35.172Z,7.41
2017-02-15T11:55:48.343Z,7.5
2017-02-15T11:57:01.431Z,7.46
2017-02-15T11:58:14.134Z,7.5
2017-02-15T11:59:26.858Z,7.53
2017-02-15T12:00:39.276Z,7.51
2017-02-15T12:01:52.418Z,7.56
2017-02-15T12:03:05.512Z,7.7
2017-02-15T12:04:18.648Z,7.61
2017-02-15T12:05:31.380Z,7.55
2017-02-15T12:06:44.123Z,7.78
2017-02-15T12:07:56.845Z,7.7
2017-02-15T12:09:09.597Z,7.77
2017-02-15T12:10:22.741Z,7.78
2017-02-15T12:11:35.858Z,7.77
2017-02-15T12:12:48.960Z,7.9
2017-02-15T12:14:02.048Z,7.85
2017-02-15T12:15:14.802Z,7.98
2017-02-15T12:16:27.924Z,7.88
2017-02-15T12:17:41.046Z,7.91
2017-02-15T12:18:54.183Z,8.03
2017-02-15T12:20:07.321Z,8.06
2017-02-15T12:21:20.412Z,8.11
2017-02-15T12:22:33.578Z,8.08
2017-02-15T12:23:46.748Z,8.09
2017-02-15T12:24:59.846Z,8.21
2017-02-15T12:26:12.559Z,8.16
2017-02-15T12:27:25.655Z,8.26
2017-02-15T12:28:38.732Z,8.31
2017-02-15T12:29:51.871Z,8.27
2017-02-15T12:31:05.042Z,8.26
2017-02-15T12:32:17.392Z,8.27
2017-02-15T12:33:30.484Z,8.31
2017-02-15T12:34:43.643Z,8.31
2017-02-15T12:35:56.760Z,8.38
2017-02-15T12:37:09.904Z,8.38
2017-02-15T12:38:22.641Z,8.52
2017-02-15T12:39:35.806Z,8.46
2017-02-15T12:40:48.908Z,8.44
2017-02-15T12:42:02.022Z,8.59
2017-02-15T12:43:14.728Z,8.54
2017-02-15T12:44:27.877Z,8.45
2017-02-15T12:45:40.998Z,8.57
2017-02-15T12:46:54.089Z,8.59
2017-02-15T12:48:07.208Z,8.63
2017-02-15T12:49:20.282Z,8.64
2017-02-15T12:50:33.426Z,8.71
2017-02-15T12:51:46.545Z,8.69
2017-02-15T12:52:59.285Z,8.66
2017-02-15T12:54:12.394Z,8.75
2017-02-15T12:55:25.516Z,8.82
2017-02-15T12:56:38.612Z,8.72
2017-02-15T12:57:51.758Z,8.74
2017-02-15T12:59:04.873Z,8.81
2017-02-15T13:00:17.570Z,8.78
2017-02-15T13:01:30.730Z,8.84
2017-02-15T13:02:43.809Z,8.93
2017-02-15T13:03:56.936Z,8.84
2017-02-15T13:05:10.058Z,8.92
2017-02-15T13:06:23.169Z,8.96
2017-02-15T13:07:36.349Z,8.96
2017-02-15T13:08:49.463Z,8.96
2017-02-15T13:10:02.583Z,9.03
2017-02-15T13:11:14.891Z,9.02
2017-02-15T13:12:28.025Z,9.08
2017-02-15T13:13:41.203Z,8.97
2017-02-15T13:14:54.376Z,9.09
2017-02-15T13:16:07.445Z,9.09
2017-02-15T13:17:20.518Z,9.19
2017-02-15T13:18:33.234Z,9.09
2017-02-15T13:19:46.288Z,9.15
2017-02-15T13:20:59.397Z,9.15
2017-02-15T13:22:12.120Z,9.21
2017-02-15T13:23:24.866Z,9.22
2017-02-15T13:24:37.617Z,9.11
2017-02-15T13:25:50.349Z,9.19
2017-02-15T13:27:03.475Z,9.18
2017-02-15T13:28:16.179Z,9.15
2017-02-15T13:29:28.950Z,9.19
2017-02-15T13:30:42.048Z,9.15
2017-02-15T13:31:54.787Z,9.18
2017-02-15T13:33:07.513Z,9.19
2017-02-15T13:34:20.626Z,9.27
2017-02-15T13:35:33.779Z,9.29
2017-02-15T13:36:46.884Z,9.3
2017-02-15T13:38:00.016Z,9.33
2017-02-15T13:39:12.767Z,9.33
2017-02-15T13:40:25.913Z,9.34
2017-02-15T13:41:39.314Z,9.37
2017-02-15T13:42:52.489Z,9.36
2017-02-15T13:44:05.562Z,9.37
2017-02-15T13:45:18.250Z,9.39
2017-02-15T13:46:31.386Z,9.42
2017-02-15T13:47:44.459Z,9.33
2017-02-15T13:48:57.588Z,9.31
2017-02-15T13:50:10.325Z,9.34
2017-02-15T13:51:23.447Z,9.3
2017-02-15T13:52:36.597Z,9.4
2017-02-15T13:53:49.686Z,9.39
2017-02-15T13:55:02.788Z,9.3
2017-02-15T13:56:15.131Z,9.33
2017-02-15T13:57:28.254Z,9.31
2017-02-15T13:58:41.398Z,9.33
2017-02-15T13:59:54.565Z,9.31
2017-02-15T14:01:07.749Z,9.37
2017-02-15T14:02:20.132Z,9.45
2017-02-15T14:03:32.841Z,9.44
2017-02-15T14:04:46.004Z,9.34
2017-02-15T14:05:59.127Z,9.33
2017-02-15T14:07:11.916Z,9.45
2017-02-15T14:08:24.672Z,9.34
2017-02-15T14:09:37.835Z,9.3
2017-02-15T14:10:50.978Z,9.34
2017-02-15T14:12:04.076Z,9.3
2017-02-15T14:13:16.822Z,9.34
2017-02-15T14:14:29.562Z,9.34
2017-02-15T14:15:42.275Z,9.34
2017-02-15T14:16:55.415Z,9.36
2017-02-15T14:18:08.511Z,9.31
2017-02-15T14:19:21.674Z,9.37
2017-02-15T14:20:34.703Z,9.39
2017-02-15T14:21:47.816Z,9.3
2017-02-15T14:23:00.180Z,9.36
2017-02-15T14:24:13.316Z,9.31
2017-02-15T14:25:26.437Z,9.3
2017-02-15T14:26:39.563Z,9.44
2017-02-15T14:27:52.722Z,9.34
2017-02-15T14:29:05.875Z,9.39
2017-02-15T14:30:17.863Z,9.39
2017-02-15T14:31:31.009Z,9.31
2017-02-15T14:32:44.080Z,9.33
2017-02-15T14:33:57.232Z,9.36
2017-02-15T14:35:10.336Z,9.37
2017-02-15T14:36:22.692Z,9.31
2017-02-15T14:37:35.836Z,9.34
2017-02-15T14:38:48.610Z,9.37
2017-02-15T14:40:01.691Z,9.34
2017-02-15T14:41:14.460Z,9.39
2017-02-15T14:42:27.597Z,9.26
2017-02-15T14:43:40.320Z,9.33
2017-02-15T14:44:53.432Z,9.34
2017-02-15T14:46:06.167Z,9.3
2017-02-15T14:47:18.908Z,9.29
2017-02-15T14:48:32.026Z,9.27
2017-02-15T14:49:44.748Z,9.27
2017-02-15T14:50:57.444Z,9.27
2017-02-15T14:52:10.546Z,9.27
2017-02-15T14:53:23.629Z,9.27
2017-02-15T14:54:36.755Z,9.18
2017-02-15T14:55:49.903Z,9.29
2017-02-15T14:57:03.025Z,9.22
2017-02-15T14:58:16.145Z,9.19
2017-02-15T14:59:28.874Z,9.15
2017-02-15T15:00:42.011Z,9.21
2017-02-15T15:01:55.139Z,9.15
2017-02-15T15:03:08.234Z,9.13
2017-02-15T15:04:20.574Z,9.19
2017-02-15T15:05:33.326Z,9.18
2017-02-15T15:06:45.291Z,9.13
2017-02-15T15:07:58.412Z,9.09
2017-02-15T15:09:11.137Z,9.09
2017-02-15T15:10:23.903Z,9
2017-02-15T15:11:36.580Z,9.09
2017-02-15T15:12:49.701Z,9
2017-02-15T15:14:02.441Z,9
2017-02-15T15:15:15.560Z,8.95
2017-02-15T15:16:28.636Z,8.95
2017-02-15T15:17:41.735Z,8.95
2017-02-15T15:18:54.830Z,8.93
2017-02-15T15:20:07.553Z,8.89
2017-02-15T15:21:20.716Z,8.86
2017-02-15T15:22:33.868Z,8.84
2017-02-15T15:23:46.619Z,8.84
2017-02-15T15:24:59.715Z,8.84
2017-02-15T15:26:12.451Z,8.78
2017-02-15T15:27:25.578Z,8.74
2017-02-15T15:28:38.722Z,8.72
2017-02-15T15:29:51.469Z,8.77
2017-02-15T15:31:04.615Z,8.71
2017-02-15T15:32:17.695Z,8.71
2017-02-15T15:33:30.792Z,8.57
2017-02-15T15:34:43.903Z,8.69
2017-02-15T15:35:57.049Z,8.56
2017-02-15T15:37:10.145Z,8.61
2017-02-15T15:38:23.281Z,8.59
2017-02-15T15:39:36.355Z,8.56
2017-02-15T15:40:49.681Z,8.54
2017-02-15T15:42:02.352Z,8.44
2017-02-15T15:43:15.174Z,8.45
2017-02-15T15:44:27.947Z,8.49
2017-02-15T15:45:41.034Z,8.35
2017-02-15T15:46:53.835Z,8.38
2017-02-15T15:48:06.958Z,8.39
2017-02-15T15:49:20.077Z,8.24
2017-02-15T15:50:32.772Z,8.26
2017-02-15T15:51:45.912Z,8.31
2017-02-15T15:52:59.063Z,8.26
2017-02-15T15:54:12.171Z,8.18
2017-02-15T15:55:24.506Z,8.09
2017-02-15T15:56:37.251Z,8.11